createdAt,value
2023-05-22T00:02:26.931Z,22.18
2023-05-22T00:07:28.422Z,22.19
2023-05-22T00:12:29.857Z,22.17
2023-05-22T00:17:31.332Z,22.15
2023-05-22T00:22:35.312Z,22.17
2023-05-22T00:27:36.799Z,22.18
2023-05-22T00:32:38.892Z,22.16
2023-05-22T00:37:40.409Z,22.14
2023-05-22T00:42:43.612Z,22.17
2023-05-22T00:47:45.212Z,22.16
2023-05-22T00:52:46.680Z,22.13
2023-05-22T00:57:48.118Z,22.15
2023-05-22T01:02:51.118Z,22.15
2023-05-22T01:07:53.144Z,22.14
2023-05-22T01:13:04.379Z,22.13
2023-05-22T01:18:20.474Z,22.13
2023-05-22T01:23:46.961Z,22.14
2023-05-22T01:28:57.102Z,22.08
2023-05-22T01:34:00.384Z,22.11
2023-05-22T01:39:04.414Z,22.15
2023-05-22T01:44:06.023Z,22.13
2023-05-22T01:49:08.963Z,22.13
2023-05-22T01:54:43.079Z,22.12
2023-05-22T01:59:48.326Z,22.12
2023-05-22T02:04:52.959Z,22.02
2023-05-22T02:09:54.484Z,22.08
2023-05-22T02:14:55.905Z,22.12
2023-05-22T02:19:57.335Z,22.12
2023-05-22T02:24:58.795Z,22.11
2023-05-22T02:30:00.387Z,22.11
2023-05-22T02:35:02.033Z,22.09
2023-05-22T02:40:06.186Z,22.11
2023-05-22T02:45:08.315Z,22.09
2023-05-22T02:50:09.887Z,22.10
2023-05-22T02:55:11.357Z,22.10
2023-05-22T03:00:12.999Z,22.09
2023-05-22T03:05:17.366Z,22.08
2023-05-22T03:10:18.886Z,22.08
2023-05-22T03:15:20.436Z,22.10
2023-05-22T03:20:21.891Z,22.10
2023-05-22T03:25:24.413Z,22.09
2023-05-22T03:30:25.859Z,22.04
2023-05-22T03:35:27.314Z,22.09
2023-05-22T03:40:28.736Z,22.08
2023-05-22T03:45:30.235Z,22.05
2023-05-22T03:50:31.737Z,22.07
2023-05-22T03:55:33.168Z,22.10
2023-05-22T04:00:34.711Z,22.10
2023-05-22T04:05:36.286Z,22.08
2023-05-22T04:10:38.707Z,22.10
2023-05-22T04:15:46.622Z,22.09
2023-05-22T04:20:48.293Z,22.08
2023-05-22T04:25:49.972Z,21.97
2023-05-22T04:30:51.412Z,22.02
2023-05-22T04:35:54.336Z,22.13
2023-05-22T04:40:56.416Z,22.14
2023-05-22T04:45:57.923Z,22.19
2023-05-22T04:50:59.382Z,22.18
2023-05-22T04:56:00.835Z,22.24
2023-05-22T05:01:03.257Z,22.27
2023-05-22T05:06:04.811Z,22.26
2023-05-22T05:11:06.528Z,22.25
2023-05-22T05:16:08.107Z,22.28
2023-05-22T05:21:09.609Z,22.33
2023-05-22T05:26:11.052Z,22.35
2023-05-22T05:31:12.471Z,22.32
2023-05-22T05:36:14.005Z,22.34
2023-05-22T05:41:15.545Z,22.35
2023-05-22T05:46:17.091Z,22.40
2023-05-22T05:51:18.635Z,22.43
2023-05-22T05:56:20.093Z,22.44
2023-05-22T06:01:24.141Z,22.45
2023-05-22T06:06:25.968Z,22.44
2023-05-22T06:11:27.383Z,22.46
2023-05-22T06:16:29.237Z,22.47
2023-05-22T06:21:31.009Z,22.48
2023-05-22T06:26:32.874Z,22.50
2023-05-22T06:31:35.358Z,22.52
2023-05-22T06:36:37.331Z,22.58
2023-05-22T06:41:38.979Z,22.65
2023-05-22T06:46:40.457Z,22.68
2023-05-22T06:51:41.930Z,22.74
2023-05-22T06:56:43.378Z,22.77
2023-05-22T07:01:44.981Z,22.81
2023-05-22T07:06:48.445Z,22.82
2023-05-22T07:11:49.974Z,22.84
2023-05-22T07:16:51.584Z,22.89
2023-05-22T07:21:53.604Z,22.91
2023-05-22T07:26:55.073Z,22.91
2023-05-22T07:31:56.563Z,22.96
2023-05-22T07:36:58.145Z,22.96
2023-05-22T07:42:00.926Z,23.02
2023-05-22T07:47:03.275Z,23.00
2023-05-22T07:52:04.751Z,23.06
2023-05-22T07:57:07.969Z,23.11
2023-05-22T08:02:09.957Z,23.15
2023-05-22T08:07:11.410Z,23.17
2023-05-22T08:12:12.881Z,23.17
2023-05-22T08:17:15.034Z,23.20
2023-05-22T08:22:16.591Z,23.22
2023-05-22T08:27:18.040Z,23.25
2023-05-22T08:32:19.465Z,23.25
2023-05-22T08:37:21.108Z,23.30
2023-05-22T08:42:22.526Z,23.36
2023-05-22T08:47:25.956Z,23.45
2023-05-22T08:52:46.844Z,23.49
2023-05-22T08:57:51.689Z,23.56
2023-05-22T09:02:53.294Z,23.62
2023-05-22T09:07:56.622Z,23.70
2023-05-22T09:13:09.184Z,23.76
2023-05-22T09:18:11.602Z,23.81
2023-05-22T09:23:14.482Z,23.86
2023-05-22T09:28:15.929Z,23.95
2023-05-22T09:33:18.297Z,24.02
2023-05-22T09:38:19.739Z,24.05
2023-05-22T09:43:21.946Z,24.08
2023-05-22T09:48:23.415Z,24.07
2023-05-22T09:53:27.452Z,24.06
2023-05-22T09:58:30.730Z,24.08
2023-05-22T10:03:32.244Z,24.13
2023-05-22T10:08:38.464Z,24.19
2023-05-22T10:13:39.950Z,24.20
2023-05-22T10:18:41.541Z,24.16
2023-05-22T10:23:42.988Z,24.22
2023-05-22T10:28:48.007Z,24.24
2023-05-22T10:33:53.236Z,24.26
2023-05-22T10:39:08.674Z,24.22
2023-05-22T10:44:10.348Z,24.21
2023-05-22T10:49:12.678Z,24.23
2023-05-22T10:54:14.324Z,24.17
2023-05-22T10:59:15.812Z,24.11
2023-05-22T11:04:18.963Z,24.07
2023-05-22T11:09:31.013Z,24.01
2023-05-22T11:14:32.507Z,23.97
2023-05-22T11:19:34.131Z,23.94
2023-05-22T11:24:37.126Z,23.91
2023-05-22T11:29:39.958Z,23.87
2023-05-22T11:34:43.187Z,23.82
2023-05-22T11:39:54.911Z,23.79
2023-05-22T11:44:56.495Z,23.78
2023-05-22T11:49:58.069Z,23.78
2023-05-22T11:54:59.607Z,23.74
2023-05-22T12:00:01.492Z,23.70
2023-05-22T12:05:04.118Z,23.71
2023-05-22T12:10:07.203Z,23.70
2023-05-22T12:15:09.150Z,23.68
2023-05-22T12:20:12.509Z,23.68
2023-05-22T12:25:15.795Z,23.67
2023-05-22T12:30:17.674Z,23.64
2023-05-22T12:35:19.307Z,23.67
2023-05-22T12:40:20.882Z,23.66
2023-05-22T12:45:22.304Z,23.65
2023-05-22T12:50:23.850Z,23.66
2023-05-22T12:55:25.359Z,23.65
2023-05-22T13:00:26.799Z,23.67
2023-05-22T13:05:28.253Z,23.65
2023-05-22T13:10:30.435Z,23.64
2023-05-22T13:15:32.438Z,23.65
2023-05-22T13:20:36.927Z,23.71
2023-05-22T13:25:38.603Z,23.78
2023-05-22T13:30:40.544Z,23.86
2023-05-22T13:35:42.273Z,23.97
2023-05-22T13:40:45.182Z,24.07
2023-05-22T13:45:47.708Z,24.17
2023-05-22T13:50:49.448Z,24.27
2023-05-22T13:55:51.570Z,24.35
2023-05-22T14:00:53.057Z,24.37
2023-05-22T14:05:54.537Z,24.40
2023-05-22T14:10:56.109Z,24.42
2023-05-22T14:15:57.533Z,24.44
2023-05-22T14:20:58.973Z,24.45
2023-05-22T14:26:00.399Z,24.46
2023-05-22T14:31:01.917Z,24.53
2023-05-22T14:36:03.466Z,24.58
2023-05-22T14:41:05.021Z,24.58
2023-05-22T14:46:06.795Z,24.63
2023-05-22T14:51:08.354Z,24.64
2023-05-22T14:56:09.784Z,24.65
2023-05-22T15:01:11.358Z,24.70
2023-05-22T15:06:12.816Z,24.70
2023-05-22T15:11:14.250Z,24.72
2023-05-22T15:16:15.803Z,24.72
2023-05-22T15:21:17.326Z,24.73
2023-05-22T15:26:19.082Z,24.72
2023-05-22T15:31:20.531Z,24.73
2023-05-22T15:36:22.251Z,24.77
2023-05-22T15:41:23.883Z,24.79
2023-05-22T15:46:25.465Z,24.81
2023-05-22T15:51:27.362Z,24.82
2023-05-22T15:56:28.900Z,24.82
2023-05-22T16:01:30.522Z,24.82
2023-05-22T16:06:32.484Z,24.79
2023-05-22T16:11:33.898Z,24.82
2023-05-22T16:16:35.478Z,24.82
2023-05-22T16:21:37.096Z,24.84
2023-05-22T16:26:39.106Z,24.81
2023-05-22T16:31:40.581Z,24.75
2023-05-22T16:36:42.032Z,24.66
2023-05-22T16:41:43.460Z,24.59
2023-05-22T16:46:44.945Z,24.52
2023-05-22T16:51:46.565Z,24.45
2023-05-22T16:56:47.986Z,24.38
2023-05-22T17:01:49.649Z,24.35
2023-05-22T17:06:53.573Z,24.28
2023-05-22T17:11:55.046Z,24.26
2023-05-22T17:16:56.478Z,24.19
2023-05-22T17:21:58.086Z,24.17
2023-05-22T17:27:00.032Z,24.12
2023-05-22T17:32:01.504Z,24.09
2023-05-22T17:37:02.950Z,24.06
2023-05-22T17:42:04.742Z,24.03
2023-05-22T17:47:06.540Z,24.02
2023-05-22T17:52:08.662Z,24.01
2023-05-22T17:57:10.218Z,23.99
2023-05-22T18:02:11.635Z,23.97
2023-05-22T18:07:13.208Z,23.95
2023-05-22T18:12:27.847Z,23.92
2023-05-22T18:17:33.619Z,23.90
2023-05-22T18:22:37.010Z,23.88
2023-05-22T18:27:38.603Z,23.84
2023-05-22T18:32:40.350Z,23.81
2023-05-22T18:37:41.948Z,23.81
2023-05-22T18:42:43.431Z,23.79
2023-05-22T18:47:44.938Z,23.77
2023-05-22T18:52:46.424Z,23.77
2023-05-22T18:57:47.850Z,23.75
2023-05-22T19:02:49.324Z,23.73
2023-05-22T19:07:50.786Z,23.73
2023-05-22T19:12:52.217Z,23.72
2023-05-22T19:17:53.895Z,23.71
2023-05-22T19:22:56.247Z,23.67
2023-05-22T19:27:57.693Z,23.67
2023-05-22T19:32:59.182Z,23.64
2023-05-22T19:38:00.670Z,23.63
2023-05-22T19:43:02.144Z,23.61
2023-05-22T19:48:03.896Z,23.58
2023-05-22T19:53:05.372Z,23.56
2023-05-22T19:58:06.801Z,23.54
2023-05-22T20:03:08.326Z,23.52
2023-05-22T20:08:10.176Z,23.50
2023-05-22T20:13:11.600Z,23.48
2023-05-22T20:18:14.157Z,23.47
2023-05-22T20:23:15.575Z,23.44
2023-05-22T20:28:16.992Z,23.41
2023-05-22T20:33:19.202Z,23.40
2023-05-22T20:38:22.275Z,23.35
2023-05-22T20:43:26.027Z,23.34
2023-05-22T20:48:27.453Z,23.31
2023-05-22T20:53:28.914Z,23.30
2023-05-22T20:58:30.338Z,23.29
2023-05-22T21:03:31.859Z,23.27
2023-05-22T21:08:33.349Z,23.25
2023-05-22T21:13:34.760Z,23.22
2023-05-22T21:18:38.613Z,23.21
2023-05-22T21:23:40.038Z,23.18
2023-05-22T21:28:42.442Z,23.18
2023-05-22T21:33:44.856Z,23.14
2023-05-22T21:38:46.330Z,23.09
2023-05-22T21:43:47.796Z,23.09
2023-05-22T21:48:49.239Z,23.04
2023-05-22T21:53:50.709Z,23.02
2023-05-22T21:58:52.127Z,23.00
2023-05-22T22:03:53.747Z,22.99
2023-05-22T22:08:57.768Z,22.93
2023-05-22T22:13:59.178Z,22.90
2023-05-22T22:19:01.981Z,22.95
2023-05-22T22:24:03.857Z,22.95
2023-05-22T22:29:05.279Z,22.93
2023-05-22T22:34:06.979Z,22.93
2023-05-22T22:39:08.431Z,22.92
2023-05-22T22:44:09.856Z,22.92
2023-05-22T22:49:11.362Z,22.83
2023-05-22T22:54:15.089Z,22.84
2023-05-22T22:59:16.685Z,22.85
2023-05-22T23:04:18.183Z,22.81
2023-05-22T23:09:20.098Z,22.76
2023-05-22T23:14:21.502Z,22.72
2023-05-22T23:19:23.019Z,22.74
2023-05-22T23:24:24.507Z,22.76
2023-05-22T23:29:25.927Z,22.73
2023-05-22T23:34:27.361Z,22.72
2023-05-22T23:39:28.787Z,22.74
2023-05-22T23:44:30.654Z,22.72
2023-05-22T23:49:32.079Z,22.67
2023-05-22T23:54:33.540Z,22.72
2023-05-22T23:59:35.187Z,22.69
